Time Latitude Longitude Accuracy (66% radius in meters) Altitude (meters) Speed (km/hour) Bearing (degrees) Battery (%) GPS flag
09:21:41 53.027320 36.149020 7 241 1.1799999475479 271.89999389648 56 1 delete
09:21:31 53.027306 36.149176 3 240 0.74000000953674 268.39999389648 56 1 delete
09:21:22 53.027244 36.149292 3 241 1.8500000238419 296.39999389648 56 1 delete
09:21:08 53.027192 36.149434 3 243 0.56000000238419 295.79998779297 56 1 delete
09:20:56 53.027100 36.149441 3 247 1.0599999427795 338.60000610352 56 1 delete
09:20:42 53.027012 36.149407 3 246 0.77999997138977 2.2000000476837 56 1 delete
09:20:22 53.026929 36.149335 3 246 0.47999998927116 10.300000190735 56 1 delete
09:19:58 53.026834 36.149336 3 251 1.4099999666214 6.4000000953674 56 1 delete
09:19:52 53.026736 36.149393 4 255 1.3999999761581 320 56 1 delete
09:19:49 53.026664 36.149484 4 254 3.1099998950958 331 56 1 delete
09:19:46 53.026585 36.149596 5 256 3.4200000762939 318 56 1 delete
09:19:42 53.026535 36.149748 5 252 3.2400000095367 304.70001220703 56 1 delete
09:19:39 53.026480 36.149871 6 252 3.6199998855591 318.29998779297 56 1 delete
09:19:35 53.026412 36.150040 5 253 4.2800002098083 312.5 56 1 delete
09:19:32 53.026358 36.150175 6 253 4.5999999046326 320.29998779297 56 1 delete
09:19:15 53.026332 36.150361 7 256 2.3800001144409 77.599998474121 56 1 delete
09:19:10 53.026373 36.150205 5 255 1.1799999475479 112.30000305176 56 1 delete
09:19:06 53.026447 36.150095 6 257 2.7300000190735 146.5 56 1 delete
09:19:02 53.026533 36.150030 5 252 1.3700000047684 134 56 1 delete
09:18:58 53.026614 36.149924 4 252 1.9199999570847 100.09999847412 56 1 delete
09:18:54 53.026696 36.149834 5 251 1.9500000476837 155.89999389648 56 1 delete
09:18:50 53.026781 36.149780 5 255 2.4500000476837 142.69999694824 56 1 delete
09:18:43 53.026867 36.149732 5 247 2.0499999523163 195.60000610352 56 1 delete
09:18:39 53.026971 36.149794 5 247 2.4100000858307 193.30000305176 56 1 delete
09:18:36 53.027067 36.149836 4 251 2.9100000858307 183.30000305176 56 1 delete
09:18:31 53.027160 36.149915 4 255 3.2799999713898 207.39999389648 56 1 delete
09:18:27 53.027245 36.150025 4 256 2.9000000953674 206.80000305176 56 1 delete
09:18:22 53.027337 36.150135 4 255 3.2699999809265 189.10000610352 56 1 delete
09:18:18 53.027440 36.150175 4 255 3.1300001144409 185.39999389648 59 1 delete
09:18:14 53.027531 36.150276 4 257 2.5 219.19999694824 59 1 delete
09:18:11 53.027568 36.150425 4 256 2.6300001144409 232.89999389648 59 1 delete
09:18:07 53.027619 36.150603 4 252 2.3299999237061 238.39999389648 59 1 delete
09:18:03 53.027664 36.150770 4 259 2.7000000476837 220.30000305176 59 1 delete
09:17:59 53.027710 36.150897 3 256 1.8999999761581 255.19999694824 59 1 delete
09:17:54 53.027717 36.151055 3 251 1.9400000572205 256.29998779297 59 1 delete
09:17:49 53.027736 36.151235 3 251 2.0599999427795 222.89999389648 59 1 delete
09:17:44 53.027807 36.151337 3 248 2.2999999523163 206.19999694824 59 1 delete
09:17:39 53.027896 36.151406 4 247 1.2599999904633 201.39999389648 59 1 delete
09:17:32 53.027917 36.151566 3 251 1.9400000572205 238.60000610352 59 1 delete
09:17:26 53.027913 36.151732 4 251 2.25 294.5 59 1 delete
09:17:21 53.027880 36.151909 4 251 1.1499999761581 302.39999389648 59 1 delete
09:17:16 53.027893 36.152079 4 250 2.9900000095367 255.10000610352 59 1 delete
09:17:10 53.027915 36.152253 5 249 1.1299999952316 262.20001220703 59 1 delete
09:17:00 53.027880 36.152403 3 251 2.5299999713898 306 59 1 delete
09:16:56 53.027822 36.152548 3 250 2.4100000858307 310.60000610352 59 1 delete
09:16:52 53.027752 36.152658 3 249 2.3099999427795 320.60000610352 59 1 delete
09:16:48 53.027668 36.152753 3 249 1.789999961853 336.10000610352 59 1 delete
09:16:42 53.027588 36.152844 3 246 1.0499999523163 268 59 1 delete
09:16:34 53.027537 36.152981 5 247 1.6100000143051 291.89999389648 59 1 delete
09:16:28 53.027500 36.153129 3 247 1.9400000572205 310.20001220703 59 1 delete